sensor_id;sensor_type;location;lat;lon;timestamp;P1;durP1;ratioP1;P2;durP2;ratioP2
65047;SDS011;52089;51.362;-2.384;2022-07-29T00:00:25;4.90;;;1.80;;
65047;SDS011;52089;51.362;-2.384;2022-07-29T00:04:07;2.23;;;1.33;;
65047;SDS011;52089;51.362;-2.384;2022-07-29T00:07:50;6.27;;;1.53;;
65047;SDS011;52089;51.362;-2.384;2022-07-29T00:11:31;6.53;;;2.00;;
65047;SDS011;52089;51.362;-2.384;2022-07-29T00:15:14;4.43;;;1.73;;
65047;SDS011;52089;51.362;-2.384;2022-07-29T00:18:59;4.13;;;1.77;;
65047;SDS011;52089;51.362;-2.384;2022-07-29T00:22:43;5.67;;;1.80;;
65047;SDS011;52089;51.362;-2.384;2022-07-29T00:26:25;5.50;;;2.30;;
65047;SDS011;52089;51.362;-2.384;2022-07-29T00:30:09;5.87;;;2.00;;
65047;SDS011;52089;51.362;-2.384;2022-07-29T00:33:51;3.93;;;1.83;;
65047;SDS011;52089;51.362;-2.384;2022-07-29T00:37:33;4.07;;;1.63;;
65047;SDS011;52089;51.362;-2.384;2022-07-29T00:41:15;2.50;;;2.17;;
65047;SDS011;52089;51.362;-2.384;2022-07-29T00:44:57;2.57;;;1.80;;
65047;SDS011;52089;51.362;-2.384;2022-07-29T00:48:39;4.07;;;1.93;;
65047;SDS011;52089;51.362;-2.384;2022-07-29T00:52:21;4.17;;;2.17;;
65047;SDS011;52089;51.362;-2.384;2022-07-29T00:56:03;4.73;;;2.27;;
65047;SDS011;52089;51.362;-2.384;2022-07-29T00:59:45;4.23;;;2.43;;
65047;SDS011;52089;51.362;-2.384;2022-07-29T01:03:27;5.20;;;2.60;;
65047;SDS011;52089;51.362;-2.384;2022-07-29T01:07:09;4.40;;;2.50;;
65047;SDS011;52089;51.362;-2.384;2022-07-29T01:10:51;6.60;;;3.00;;
65047;SDS011;52089;51.362;-2.384;2022-07-29T01:14:34;4.53;;;2.80;;
65047;SDS011;52089;51.362;-2.384;2022-07-29T01:18:20;3.87;;;2.93;;
65047;SDS011;52089;51.362;-2.384;2022-07-29T01:30:14;4.60;;;2.38;;
65047;SDS011;52089;51.362;-2.384;2022-07-29T01:34:01;4.57;;;1.90;;
65047;SDS011;52089;51.362;-2.384;2022-07-29T01:37:57;6.73;;;2.60;;
65047;SDS011;52089;51.362;-2.384;2022-07-29T01:46:03;5.50;;;2.05;;
65047;SDS011;52089;51.362;-2.384;2022-07-29T01:49:51;3.90;;;2.10;;
65047;SDS011;52089;51.362;-2.384;2022-07-29T01:53:42;3.40;;;2.00;;
65047;SDS011;52089;51.362;-2.384;2022-07-29T01:57:44;7.73;;;2.47;;
65047;SDS011;52089;51.362;-2.384;2022-07-29T02:01:29;3.60;;;2.20;;
65047;SDS011;52089;51.362;-2.384;2022-07-29T02:05:15;3.20;;;2.13;;
65047;SDS011;52089;51.362;-2.384;2022-07-29T02:09:00;4.97;;;2.40;;
65047;SDS011;52089;51.362;-2.384;2022-07-29T02:12:44;5.93;;;2.33;;
65047;SDS011;52089;51.362;-2.384;2022-07-29T02:16:31;3.83;;;2.20;;
65047;SDS011;52089;51.362;-2.384;2022-07-29T02:20:15;4.50;;;2.13;;
65047;SDS011;52089;51.362;-2.384;2022-07-29T02:23:58;3.43;;;1.90;;
65047;SDS011;52089;51.362;-2.384;2022-07-29T02:27:42;5.07;;;2.07;;
65047;SDS011;52089;51.362;-2.384;2022-07-29T02:31:26;4.37;;;2.07;;
65047;SDS011;52089;51.362;-2.384;2022-07-29T02:35:15;4.00;;;1.53;;
65047;SDS011;52089;51.362;-2.384;2022-07-29T02:38:58;5.23;;;1.80;;
65047;SDS011;52089;51.362;-2.384;2022-07-29T02:42:42;5.20;;;1.67;;
65047;SDS011;52089;51.362;-2.384;2022-07-29T02:46:29;6.20;;;1.70;;
65047;SDS011;52089;51.362;-2.384;2022-07-29T02:54:01;4.00;;;1.93;;
65047;SDS011;52089;51.362;-2.384;2022-07-29T02:58:01;5.30;;;1.87;;
65047;SDS011;52089;51.362;-2.384;2022-07-29T03:01:49;6.17;;;1.80;;
65047;SDS011;52089;51.362;-2.384;2022-07-29T03:05:33;5.87;;;2.20;;
65047;SDS011;52089;51.362;-2.384;2022-07-29T03:09:17;3.90;;;2.30;;
65047;SDS011;52089;51.362;-2.384;2022-07-29T03:13:00;4.77;;;2.20;;
65047;SDS011;52089;51.362;-2.384;2022-07-29T03:16:43;4.17;;;2.10;;
65047;SDS011;52089;51.362;-2.384;2022-07-29T03:20:25;5.67;;;2.40;;
65047;SDS011;52089;51.362;-2.384;2022-07-29T03:24:07;6.50;;;2.73;;
65047;SDS011;52089;51.362;-2.384;2022-07-29T03:27:51;5.97;;;2.27;;
65047;SDS011;52089;51.362;-2.384;2022-07-29T03:31:33;6.43;;;2.70;;
65047;SDS011;52089;51.362;-2.384;2022-07-29T03:35:15;7.77;;;2.50;;
65047;SDS011;52089;51.362;-2.384;2022-07-29T03:38:57;4.17;;;2.27;;
65047;SDS011;52089;51.362;-2.384;2022-07-29T03:42:40;4.37;;;2.30;;
65047;SDS011;52089;51.362;-2.384;2022-07-29T03:46:24;5.63;;;2.17;;
65047;SDS011;52089;51.362;-2.384;2022-07-29T03:50:10;4.17;;;1.97;;
65047;SDS011;52089;51.362;-2.384;2022-07-29T03:53:54;4.03;;;2.20;;
65047;SDS011;52089;51.362;-2.384;2022-07-29T03:57:36;4.60;;;2.10;;
65047;SDS011;52089;51.362;-2.384;2022-07-29T04:01:21;6.63;;;1.70;;
65047;SDS011;52089;51.362;-2.384;2022-07-29T04:05:05;4.40;;;1.90;;
65047;SDS011;52089;51.362;-2.384;2022-07-29T04:08:52;6.30;;;2.00;;
65047;SDS011;52089;51.362;-2.384;2022-07-29T04:12:34;4.03;;;1.90;;
65047;SDS011;52089;51.362;-2.384;2022-07-29T04:16:16;8.53;;;2.03;;
65047;SDS011;52089;51.362;-2.384;2022-07-29T04:19:58;4.23;;;1.63;;
65047;SDS011;52089;51.362;-2.384;2022-07-29T04:23:40;4.17;;;1.80;;
65047;SDS011;52089;51.362;-2.384;2022-07-29T04:27:34;3.03;;;1.50;;
65047;SDS011;52089;51.362;-2.384;2022-07-29T04:31:16;4.67;;;1.80;;
65047;SDS011;52089;51.362;-2.384;2022-07-29T04:35:04;3.73;;;1.63;;
65047;SDS011;52089;51.362;-2.384;2022-07-29T04:38:46;3.77;;;1.73;;
65047;SDS011;52089;51.362;-2.384;2022-07-29T04:42:28;4.03;;;1.50;;
65047;SDS011;52089;51.362;-2.384;2022-07-29T04:46:09;3.00;;;1.70;;
65047;SDS011;52089;51.362;-2.384;2022-07-29T04:49:51;3.70;;;1.70;;
65047;SDS011;52089;51.362;-2.384;2022-07-29T04:53:34;4.47;;;2.03;;
65047;SDS011;52089;51.362;-2.384;2022-07-29T04:57:16;4.20;;;1.33;;
65047;SDS011;52089;51.362;-2.384;2022-07-29T05:00:58;4.00;;;1.37;;
65047;SDS011;52089;51.362;-2.384;2022-07-29T05:04:39;3.40;;;1.30;;
65047;SDS011;52089;51.362;-2.384;2022-07-29T05:08:21;5.30;;;1.70;;
65047;SDS011;52089;51.362;-2.384;2022-07-29T05:12:03;4.03;;;1.43;;
65047;SDS011;52089;51.362;-2.384;2022-07-29T05:15:45;2.17;;;1.43;;
65047;SDS011;52089;51.362;-2.384;2022-07-29T05:19:27;2.47;;;1.20;;
65047;SDS011;52089;51.362;-2.384;2022-07-29T05:23:09;2.57;;;1.10;;
65047;SDS011;52089;51.362;-2.384;2022-07-29T05:26:53;4.80;;;1.20;;
65047;SDS011;52089;51.362;-2.384;2022-07-29T05:30:35;3.77;;;1.40;;
65047;SDS011;52089;51.362;-2.384;2022-07-29T05:34:17;3.87;;;1.67;;
65047;SDS011;52089;51.362;-2.384;2022-07-29T05:38:00;3.53;;;1.13;;
65047;SDS011;52089;51.362;-2.384;2022-07-29T05:41:42;3.80;;;1.90;;
65047;SDS011;52089;51.362;-2.384;2022-07-29T05:45:27;3.47;;;1.23;;
65047;SDS011;52089;51.362;-2.384;2022-07-29T05:49:09;3.63;;;1.40;;
65047;SDS011;52089;51.362;-2.384;2022-07-29T05:53:07;3.73;;;1.23;;
65047;SDS011;52089;51.362;-2.384;2022-07-29T05:57:00;4.33;;;1.27;;
65047;SDS011;52089;51.362;-2.384;2022-07-29T06:00:42;3.43;;;1.13;;
65047;SDS011;52089;51.362;-2.384;2022-07-29T06:04:25;6.67;;;1.23;;
65047;SDS011;52089;51.362;-2.384;2022-07-29T06:08:07;6.13;;;1.47;;
65047;SDS011;52089;51.362;-2.384;2022-07-29T06:11:48;7.03;;;1.60;;
65047;SDS011;52089;51.362;-2.384;2022-07-29T06:15:30;3.57;;;1.27;;
65047;SDS011;52089;51.362;-2.384;2022-07-29T06:19:13;4.57;;;1.33;;
65047;SDS011;52089;51.362;-2.384;2022-07-29T06:22:55;3.57;;;1.10;;
65047;SDS011;52089;51.362;-2.384;2022-07-29T06:26:37;6.20;;;1.20;;
65047;SDS011;52089;51.362;-2.384;2022-07-29T06:30:20;3.40;;;1.50;;
65047;SDS011;52089;51.362;-2.384;2022-07-29T06:34:02;4.13;;;1.50;;
65047;SDS011;52089;51.362;-2.384;2022-07-29T06:37:45;7.83;;;2.53;;
65047;SDS011;52089;51.362;-2.384;2022-07-29T06:41:29;6.73;;;1.77;;
65047;SDS011;52089;51.362;-2.384;2022-07-29T06:45:11;3.83;;;1.60;;
65047;SDS011;52089;51.362;-2.384;2022-07-29T06:48:53;3.97;;;1.50;;
65047;SDS011;52089;51.362;-2.384;2022-07-29T06:52:35;4.07;;;1.70;;
65047;SDS011;52089;51.362;-2.384;2022-07-29T06:56:18;7.87;;;1.70;;
65047;SDS011;52089;51.362;-2.384;2022-07-29T07:00:00;3.17;;;2.00;;
65047;SDS011;52089;51.362;-2.384;2022-07-29T07:03:42;3.40;;;1.70;;
65047;SDS011;52089;51.362;-2.384;2022-07-29T07:07:24;2.90;;;1.63;;
65047;SDS011;52089;51.362;-2.384;2022-07-29T07:11:06;9.90;;;1.80;;
65047;SDS011;52089;51.362;-2.384;2022-07-29T07:14:48;3.03;;;1.80;;
65047;SDS011;52089;51.362;-2.384;2022-07-29T07:18:30;3.07;;;1.63;;
65047;SDS011;52089;51.362;-2.384;2022-07-29T07:22:12;4.97;;;1.30;;
65047;SDS011;52089;51.362;-2.384;2022-07-29T07:25:54;4.27;;;1.43;;
65047;SDS011;52089;51.362;-2.384;2022-07-29T07:29:35;4.33;;;1.70;;
65047;SDS011;52089;51.362;-2.384;2022-07-29T07:33:17;8.20;;;1.60;;
65047;SDS011;52089;51.362;-2.384;2022-07-29T07:37:00;4.90;;;1.57;;
65047;SDS011;52089;51.362;-2.384;2022-07-29T07:40:42;3.93;;;1.93;;
65047;SDS011;52089;51.362;-2.384;2022-07-29T07:44:23;5.30;;;2.10;;
65047;SDS011;52089;51.362;-2.384;2022-07-29T07:48:05;4.60;;;1.47;;
65047;SDS011;52089;51.362;-2.384;2022-07-29T07:51:47;4.80;;;1.70;;
65047;SDS011;52089;51.362;-2.384;2022-07-29T07:55:31;6.03;;;1.63;;
65047;SDS011;52089;51.362;-2.384;2022-07-29T07:59:33;4.00;;;1.40;;
65047;SDS011;52089;51.362;-2.384;2022-07-29T08:03:14;4.37;;;1.53;;
65047;SDS011;52089;51.362;-2.384;2022-07-29T08:06:57;6.17;;;2.23;;
65047;SDS011;52089;51.362;-2.384;2022-07-29T08:10:39;3.63;;;1.70;;
65047;SDS011;52089;51.362;-2.384;2022-07-29T08:14:33;3.37;;;1.37;;
65047;SDS011;52089;51.362;-2.384;2022-07-29T08:18:15;8.87;;;1.93;;
65047;SDS011;52089;51.362;-2.384;2022-07-29T08:21:57;5.60;;;1.50;;
65047;SDS011;52089;51.362;-2.384;2022-07-29T08:25:39;2.93;;;1.27;;
65047;SDS011;52089;51.362;-2.384;2022-07-29T08:29:21;3.30;;;1.40;;
65047;SDS011;52089;51.362;-2.384;2022-07-29T08:33:03;2.67;;;1.27;;
65047;SDS011;52089;51.362;-2.384;2022-07-29T08:36:45;4.63;;;1.27;;
65047;SDS011;52089;51.362;-2.384;2022-07-29T08:40:31;4.70;;;1.30;;
65047;SDS011;52089;51.362;-2.384;2022-07-29T08:44:15;5.18;;;1.35;;
65047;SDS011;52089;51.362;-2.384;2022-07-29T08:48:11;3.45;;;1.30;;
65047;SDS011;52089;51.362;-2.384;2022-07-29T08:51:54;4.65;;;1.30;;
65047;SDS011;52089;51.362;-2.384;2022-07-29T08:55:45;8.35;;;1.35;;
65047;SDS011;52089;51.362;-2.384;2022-07-29T08:59:28;6.18;;;1.60;;
65047;SDS011;52089;51.362;-2.384;2022-07-29T09:03:16;4.28;;;1.08;;
65047;SDS011;52089;51.362;-2.384;2022-07-29T09:07:01;6.03;;;1.05;;
65047;SDS011;52089;51.362;-2.384;2022-07-29T09:10:47;3.53;;;1.02;;
65047;SDS011;52089;51.362;-2.384;2022-07-29T09:14:29;2.78;;;1.10;;
65047;SDS011;52089;51.362;-2.384;2022-07-29T09:18:11;7.32;;;1.45;;
65047;SDS011;52089;51.362;-2.384;2022-07-29T09:22:10;5.13;;;1.27;;
65047;SDS011;52089;51.362;-2.384;2022-07-29T09:25:53;2.75;;;1.05;;
65047;SDS011;52089;51.362;-2.384;2022-07-29T09:29:35;4.10;;;1.20;;
65047;SDS011;52089;51.362;-2.384;2022-07-29T09:33:18;2.20;;;0.90;;
65047;SDS011;52089;51.362;-2.384;2022-07-29T09:37:00;4.68;;;1.05;;
65047;SDS011;52089;51.362;-2.384;2022-07-29T09:40:43;5.13;;;1.10;;
65047;SDS011;52089;51.362;-2.384;2022-07-29T09:44:45;8.20;;;2.05;;
65047;SDS011;52089;51.362;-2.384;2022-07-29T09:48:29;2.53;;;1.30;;
65047;SDS011;52089;51.362;-2.384;2022-07-29T09:52:11;3.63;;;0.95;;
65047;SDS011;52089;51.362;-2.384;2022-07-29T09:55:53;2.47;;;0.85;;
65047;SDS011;52089;51.362;-2.384;2022-07-29T09:59:34;2.08;;;0.80;;
65047;SDS011;52089;51.362;-2.384;2022-07-29T10:03:30;2.25;;;1.00;;
65047;SDS011;52089;51.362;-2.384;2022-07-29T10:07:12;4.05;;;0.75;;
65047;SDS011;52089;51.362;-2.384;2022-07-29T10:11:03;5.00;;;0.88;;
65047;SDS011;52089;51.362;-2.384;2022-07-29T10:14:53;3.28;;;1.10;;
65047;SDS011;52089;51.362;-2.384;2022-07-29T10:18:35;2.70;;;1.00;;
65047;SDS011;52089;51.362;-2.384;2022-07-29T10:22:20;3.00;;;0.80;;
65047;SDS011;52089;51.362;-2.384;2022-07-29T10:26:22;4.05;;;0.88;;
65047;SDS011;52089;51.362;-2.384;2022-07-29T10:30:05;2.90;;;0.80;;
65047;SDS011;52089;51.362;-2.384;2022-07-29T10:33:51;3.70;;;1.00;;
65047;SDS011;52089;51.362;-2.384;2022-07-29T10:46:14;1.92;;;0.70;;
65047;SDS011;52089;51.362;-2.384;2022-07-29T10:53:50;3.07;;;0.57;;
65047;SDS011;52089;51.362;-2.384;2022-07-29T10:57:34;1.63;;;0.80;;
65047;SDS011;52089;51.362;-2.384;2022-07-29T11:01:35;3.85;;;0.70;;
65047;SDS011;52089;51.362;-2.384;2022-07-29T11:05:55;2.50;;;0.90;;
65047;SDS011;52089;51.362;-2.384;2022-07-29T11:09:40;2.75;;;0.80;;
65047;SDS011;52089;51.362;-2.384;2022-07-29T11:17:26;1.35;;;0.70;;
65047;SDS011;52089;51.362;-2.384;2022-07-29T11:21:35;1.92;;;0.70;;
65047;SDS011;52089;51.362;-2.384;2022-07-29T11:25:35;1.95;;;0.50;;
65047;SDS011;52089;51.362;-2.384;2022-07-29T11:29:23;4.95;;;0.95;;
65047;SDS011;52089;51.362;-2.384;2022-07-29T11:33:07;2.28;;;0.60;;
65047;SDS011;52089;51.362;-2.384;2022-07-29T11:37:36;1.45;;;0.57;;
65047;SDS011;52089;51.362;-2.384;2022-07-29T11:41:26;2.35;;;0.80;;
65047;SDS011;52089;51.362;-2.384;2022-07-29T11:45:13;1.90;;;0.77;;
65047;SDS011;52089;51.362;-2.384;2022-07-29T11:49:24;3.70;;;0.73;;
65047;SDS011;52089;51.362;-2.384;2022-07-29T11:53:13;4.40;;;1.10;;
65047;SDS011;52089;51.362;-2.384;2022-07-29T11:56:56;3.25;;;0.70;;
65047;SDS011;52089;51.362;-2.384;2022-07-29T12:00:40;2.88;;;0.65;;
65047;SDS011;52089;51.362;-2.384;2022-07-29T12:04:23;1.65;;;0.65;;
65047;SDS011;52089;51.362;-2.384;2022-07-29T12:08:07;1.60;;;0.60;;
65047;SDS011;52089;51.362;-2.384;2022-07-29T12:12:09;1.38;;;0.60;;
65047;SDS011;52089;51.362;-2.384;2022-07-29T12:15:52;5.18;;;1.80;;
65047;SDS011;52089;51.362;-2.384;2022-07-29T12:19:44;1.73;;;0.60;;
65047;SDS011;52089;51.362;-2.384;2022-07-29T12:23:27;1.98;;;0.70;;
65047;SDS011;52089;51.362;-2.384;2022-07-29T12:27:16;1.73;;;0.75;;
65047;SDS011;52089;51.362;-2.384;2022-07-29T12:30:58;1.20;;;0.50;;
65047;SDS011;52089;51.362;-2.384;2022-07-29T12:34:42;3.45;;;0.70;;
65047;SDS011;52089;51.362;-2.384;2022-07-29T12:38:24;1.88;;;0.80;;
65047;SDS011;52089;51.362;-2.384;2022-07-29T12:42:13;2.03;;;0.65;;
65047;SDS011;52089;51.362;-2.384;2022-07-29T12:46:10;2.10;;;0.60;;
65047;SDS011;52089;51.362;-2.384;2022-07-29T12:50:27;1.92;;;0.43;;
65047;SDS011;52089;51.362;-2.384;2022-07-29T12:54:10;2.55;;;0.70;;
65047;SDS011;52089;51.362;-2.384;2022-07-29T12:57:54;2.33;;;0.77;;
65047;SDS011;52089;51.362;-2.384;2022-07-29T13:01:36;2.63;;;0.82;;
65047;SDS011;52089;51.362;-2.384;2022-07-29T13:05:18;2.30;;;0.70;;
65047;SDS011;52089;51.362;-2.384;2022-07-29T13:13:09;1.80;;;0.60;;
65047;SDS011;52089;51.362;-2.384;2022-07-29T13:17:00;2.75;;;0.60;;
65047;SDS011;52089;51.362;-2.384;2022-07-29T13:20:44;2.55;;;0.60;;
65047;SDS011;52089;51.362;-2.384;2022-07-29T13:24:26;1.63;;;0.70;;
65047;SDS011;52089;51.362;-2.384;2022-07-29T13:28:10;1.63;;;0.68;;
65047;SDS011;52089;51.362;-2.384;2022-07-29T13:31:53;1.25;;;0.60;;
65047;SDS011;52089;51.362;-2.384;2022-07-29T13:35:35;3.78;;;0.88;;
65047;SDS011;52089;51.362;-2.384;2022-07-29T13:39:20;2.83;;;0.47;;
65047;SDS011;52089;51.362;-2.384;2022-07-29T13:43:02;1.75;;;0.50;;
65047;SDS011;52089;51.362;-2.384;2022-07-29T13:46:44;2.08;;;0.68;;
65047;SDS011;52089;51.362;-2.384;2022-07-29T13:50:26;1.55;;;0.50;;
65047;SDS011;52089;51.362;-2.384;2022-07-29T13:54:08;1.65;;;0.60;;
65047;SDS011;52089;51.362;-2.384;2022-07-29T13:57:50;2.47;;;0.60;;
65047;SDS011;52089;51.362;-2.384;2022-07-29T14:01:32;1.98;;;0.60;;
65047;SDS011;52089;51.362;-2.384;2022-07-29T14:05:14;1.38;;;0.50;;
65047;SDS011;52089;51.362;-2.384;2022-07-29T14:08:55;1.58;;;0.60;;
65047;SDS011;52089;51.362;-2.384;2022-07-29T14:12:37;1.20;;;0.60;;
65047;SDS011;52089;51.362;-2.384;2022-07-29T14:16:19;1.90;;;0.60;;
65047;SDS011;52089;51.362;-2.384;2022-07-29T14:20:01;2.92;;;0.55;;
65047;SDS011;52089;51.362;-2.384;2022-07-29T14:23:43;1.88;;;0.60;;
65047;SDS011;52089;51.362;-2.384;2022-07-29T14:27:25;1.35;;;0.50;;
65047;SDS011;52089;51.362;-2.384;2022-07-29T14:31:18;1.23;;;0.70;;
65047;SDS011;52089;51.362;-2.384;2022-07-29T14:35:00;3.30;;;0.75;;
65047;SDS011;52089;51.362;-2.384;2022-07-29T14:38:42;1.50;;;0.60;;
65047;SDS011;52089;51.362;-2.384;2022-07-29T14:42:24;1.58;;;0.40;;
65047;SDS011;52089;51.362;-2.384;2022-07-29T14:46:06;4.25;;;0.77;;
65047;SDS011;52089;51.362;-2.384;2022-07-29T14:49:49;2.25;;;0.68;;
65047;SDS011;52089;51.362;-2.384;2022-07-29T14:53:31;1.85;;;0.70;;
65047;SDS011;52089;51.362;-2.384;2022-07-29T14:57:13;2.22;;;0.52;;
65047;SDS011;52089;51.362;-2.384;2022-07-29T15:00:55;2.13;;;0.57;;
65047;SDS011;52089;51.362;-2.384;2022-07-29T15:04:37;2.05;;;0.60;;
65047;SDS011;52089;51.362;-2.384;2022-07-29T15:08:19;3.50;;;0.80;;
65047;SDS011;52089;51.362;-2.384;2022-07-29T15:12:01;4.63;;;0.60;;
65047;SDS011;52089;51.362;-2.384;2022-07-29T15:15:44;2.22;;;0.50;;
65047;SDS011;52089;51.362;-2.384;2022-07-29T15:19:26;1.70;;;0.60;;
65047;SDS011;52089;51.362;-2.384;2022-07-29T15:23:08;2.05;;;0.55;;
65047;SDS011;52089;51.362;-2.384;2022-07-29T15:26:50;6.32;;;0.80;;
65047;SDS011;52089;51.362;-2.384;2022-07-29T15:30:33;3.33;;;0.50;;
65047;SDS011;52089;51.362;-2.384;2022-07-29T15:34:17;1.50;;;0.60;;
65047;SDS011;52089;51.362;-2.384;2022-07-29T15:37:58;2.72;;;0.60;;
65047;SDS011;52089;51.362;-2.384;2022-07-29T15:41:40;4.15;;;0.63;;
65047;SDS011;52089;51.362;-2.384;2022-07-29T15:45:22;1.67;;;0.60;;
65047;SDS011;52089;51.362;-2.384;2022-07-29T15:49:05;2.03;;;0.57;;
65047;SDS011;52089;51.362;-2.384;2022-07-29T15:52:47;2.38;;;0.80;;
65047;SDS011;52089;51.362;-2.384;2022-07-29T15:56:29;1.48;;;0.70;;
65047;SDS011;52089;51.362;-2.384;2022-07-29T16:00:12;1.27;;;0.50;;
65047;SDS011;52089;51.362;-2.384;2022-07-29T16:03:54;1.13;;;0.52;;
65047;SDS011;52089;51.362;-2.384;2022-07-29T16:07:37;2.60;;;0.68;;
65047;SDS011;52089;51.362;-2.384;2022-07-29T16:11:18;4.30;;;0.80;;
65047;SDS011;52089;51.362;-2.384;2022-07-29T16:15:01;2.15;;;0.98;;
65047;SDS011;52089;51.362;-2.384;2022-07-29T16:18:49;3.30;;;1.00;;
65047;SDS011;52089;51.362;-2.384;2022-07-29T16:22:31;3.95;;;1.00;;
65047;SDS011;52089;51.362;-2.384;2022-07-29T16:26:13;4.80;;;1.02;;
65047;SDS011;52089;51.362;-2.384;2022-07-29T16:29:55;3.67;;;1.00;;
65047;SDS011;52089;51.362;-2.384;2022-07-29T16:33:37;7.55;;;0.95;;
65047;SDS011;52089;51.362;-2.384;2022-07-29T16:37:35;2.88;;;1.00;;
65047;SDS011;52089;51.362;-2.384;2022-07-29T16:41:18;5.43;;;0.95;;
65047;SDS011;52089;51.362;-2.384;2022-07-29T16:45:00;4.13;;;1.00;;
65047;SDS011;52089;51.362;-2.384;2022-07-29T16:48:43;2.65;;;1.00;;
65047;SDS011;52089;51.362;-2.384;2022-07-29T16:52:25;2.53;;;0.90;;
65047;SDS011;52089;51.362;-2.384;2022-07-29T16:56:08;1.77;;;0.90;;
65047;SDS011;52089;51.362;-2.384;2022-07-29T16:59:53;4.55;;;1.10;;
65047;SDS011;52089;51.362;-2.384;2022-07-29T17:03:35;3.17;;;1.08;;
65047;SDS011;52089;51.362;-2.384;2022-07-29T17:07:41;2.50;;;0.90;;
65047;SDS011;52089;51.362;-2.384;2022-07-29T17:11:26;5.63;;;0.90;;
65047;SDS011;52089;51.362;-2.384;2022-07-29T17:15:28;2.75;;;1.00;;
65047;SDS011;52089;51.362;-2.384;2022-07-29T17:19:16;4.63;;;1.45;;
65047;SDS011;52089;51.362;-2.384;2022-07-29T17:23:01;2.42;;;0.90;;
65047;SDS011;52089;51.362;-2.384;2022-07-29T17:26:43;3.33;;;1.00;;
65047;SDS011;52089;51.362;-2.384;2022-07-29T17:30:27;4.32;;;1.00;;
65047;SDS011;52089;51.362;-2.384;2022-07-29T17:34:09;2.67;;;0.98;;
65047;SDS011;52089;51.362;-2.384;2022-07-29T17:37:51;2.85;;;1.23;;
65047;SDS011;52089;51.362;-2.384;2022-07-29T17:41:34;2.50;;;1.10;;
65047;SDS011;52089;51.362;-2.384;2022-07-29T17:45:16;2.63;;;1.10;;
65047;SDS011;52089;51.362;-2.384;2022-07-29T17:48:58;2.78;;;0.90;;
65047;SDS011;52089;51.362;-2.384;2022-07-29T17:52:40;1.65;;;0.80;;
65047;SDS011;52089;51.362;-2.384;2022-07-29T17:56:22;2.92;;;0.82;;
65047;SDS011;52089;51.362;-2.384;2022-07-29T18:00:05;3.75;;;0.90;;
65047;SDS011;52089;51.362;-2.384;2022-07-29T18:03:48;3.90;;;0.80;;
65047;SDS011;52089;51.362;-2.384;2022-07-29T18:07:30;2.72;;;0.75;;
65047;SDS011;52089;51.362;-2.384;2022-07-29T18:11:13;5.03;;;1.10;;
65047;SDS011;52089;51.362;-2.384;2022-07-29T18:14:55;3.33;;;0.88;;
65047;SDS011;52089;51.362;-2.384;2022-07-29T18:18:37;3.63;;;0.80;;
65047;SDS011;52089;51.362;-2.384;2022-07-29T18:22:19;3.72;;;0.80;;
65047;SDS011;52089;51.362;-2.384;2022-07-29T18:26:02;2.35;;;0.70;;
65047;SDS011;52089;51.362;-2.384;2022-07-29T18:29:44;4.35;;;0.98;;
65047;SDS011;52089;51.362;-2.384;2022-07-29T18:33:31;3.20;;;0.90;;
65047;SDS011;52089;51.362;-2.384;2022-07-29T18:37:13;2.70;;;0.70;;
65047;SDS011;52089;51.362;-2.384;2022-07-29T18:40:55;3.30;;;1.00;;
65047;SDS011;52089;51.362;-2.384;2022-07-29T18:44:37;2.83;;;0.60;;
65047;SDS011;52089;51.362;-2.384;2022-07-29T18:48:30;4.13;;;1.00;;
65047;SDS011;52089;51.362;-2.384;2022-07-29T18:52:13;2.00;;;0.70;;
65047;SDS011;52089;51.362;-2.384;2022-07-29T18:55:55;2.97;;;0.90;;
65047;SDS011;52089;51.362;-2.384;2022-07-29T18:59:40;2.90;;;0.80;;
65047;SDS011;52089;51.362;-2.384;2022-07-29T19:03:23;3.33;;;0.70;;
65047;SDS011;52089;51.362;-2.384;2022-07-29T19:07:05;2.10;;;0.90;;
65047;SDS011;52089;51.362;-2.384;2022-07-29T19:10:47;2.73;;;1.20;;
65047;SDS011;52089;51.362;-2.384;2022-07-29T19:14:29;4.00;;;0.80;;
65047;SDS011;52089;51.362;-2.384;2022-07-29T19:18:11;3.07;;;1.10;;
65047;SDS011;52089;51.362;-2.384;2022-07-29T19:21:55;4.83;;;0.77;;
65047;SDS011;52089;51.362;-2.384;2022-07-29T19:25:37;6.50;;;1.20;;
65047;SDS011;52089;51.362;-2.384;2022-07-29T19:29:34;2.27;;;1.00;;
65047;SDS011;52089;51.362;-2.384;2022-07-29T19:33:16;6.73;;;1.20;;
65047;SDS011;52089;51.362;-2.384;2022-07-29T19:36:59;4.57;;;1.20;;
65047;SDS011;52089;51.362;-2.384;2022-07-29T19:40:42;6.87;;;1.30;;
65047;SDS011;52089;51.362;-2.384;2022-07-29T19:44:25;6.10;;;1.10;;
65047;SDS011;52089;51.362;-2.384;2022-07-29T19:48:06;3.07;;;0.97;;
65047;SDS011;52089;51.362;-2.384;2022-07-29T19:51:48;3.73;;;1.13;;
65047;SDS011;52089;51.362;-2.384;2022-07-29T19:55:33;6.80;;;1.20;;
65047;SDS011;52089;51.362;-2.384;2022-07-29T19:59:15;3.30;;;1.20;;
65047;SDS011;52089;51.362;-2.384;2022-07-29T20:03:04;3.03;;;1.20;;
65047;SDS011;52089;51.362;-2.384;2022-07-29T20:06:45;9.63;;;5.67;;
65047;SDS011;52089;51.362;-2.384;2022-07-29T20:10:32;4.40;;;1.53;;
65047;SDS011;52089;51.362;-2.384;2022-07-29T20:14:15;3.33;;;1.60;;
65047;SDS011;52089;51.362;-2.384;2022-07-29T20:17:57;3.07;;;1.30;;
65047;SDS011;52089;51.362;-2.384;2022-07-29T20:21:38;5.00;;;1.40;;
65047;SDS011;52089;51.362;-2.384;2022-07-29T20:25:20;7.17;;;1.90;;
65047;SDS011;52089;51.362;-2.384;2022-07-29T20:29:03;5.90;;;1.57;;
65047;SDS011;52089;51.362;-2.384;2022-07-29T20:32:45;4.80;;;1.73;;
65047;SDS011;52089;51.362;-2.384;2022-07-29T20:36:27;9.97;;;1.43;;
65047;SDS011;52089;51.362;-2.384;2022-07-29T20:40:09;4.33;;;1.30;;
65047;SDS011;52089;51.362;-2.384;2022-07-29T20:43:52;3.70;;;1.30;;
65047;SDS011;52089;51.362;-2.384;2022-07-29T20:47:35;2.90;;;1.40;;
65047;SDS011;52089;51.362;-2.384;2022-07-29T20:51:17;3.90;;;1.43;;
65047;SDS011;52089;51.362;-2.384;2022-07-29T20:54:59;5.17;;;1.73;;
65047;SDS011;52089;51.362;-2.384;2022-07-29T20:58:41;6.20;;;1.40;;
65047;SDS011;52089;51.362;-2.384;2022-07-29T21:02:23;6.33;;;1.40;;
65047;SDS011;52089;51.362;-2.384;2022-07-29T21:06:05;2.83;;;1.60;;
65047;SDS011;52089;51.362;-2.384;2022-07-29T21:09:49;2.00;;;1.23;;
65047;SDS011;52089;51.362;-2.384;2022-07-29T21:13:31;4.10;;;1.67;;
65047;SDS011;52089;51.362;-2.384;2022-07-29T21:17:18;4.70;;;1.57;;
65047;SDS011;52089;51.362;-2.384;2022-07-29T21:21:03;4.07;;;1.60;;
65047;SDS011;52089;51.362;-2.384;2022-07-29T21:24:45;2.30;;;1.13;;
65047;SDS011;52089;51.362;-2.384;2022-07-29T21:28:27;7.80;;;1.57;;
65047;SDS011;52089;51.362;-2.384;2022-07-29T21:32:21;5.77;;;1.70;;
65047;SDS011;52089;51.362;-2.384;2022-07-29T21:36:09;3.90;;;1.50;;
65047;SDS011;52089;51.362;-2.384;2022-07-29T21:40:12;3.83;;;1.30;;
65047;SDS011;52089;51.362;-2.384;2022-07-29T21:43:54;4.77;;;1.63;;
65047;SDS011;52089;51.362;-2.384;2022-07-29T21:47:39;6.40;;;1.60;;
65047;SDS011;52089;51.362;-2.384;2022-07-29T21:51:21;4.60;;;1.20;;
65047;SDS011;52089;51.362;-2.384;2022-07-29T21:55:03;3.63;;;1.53;;
65047;SDS011;52089;51.362;-2.384;2022-07-29T21:58:45;4.23;;;1.53;;
65047;SDS011;52089;51.362;-2.384;2022-07-29T22:02:27;3.07;;;1.60;;
65047;SDS011;52089;51.362;-2.384;2022-07-29T22:06:09;3.70;;;1.30;;
65047;SDS011;52089;51.362;-2.384;2022-07-29T22:09:58;3.53;;;1.63;;
65047;SDS011;52089;51.362;-2.384;2022-07-29T22:13:39;5.33;;;1.60;;
65047;SDS011;52089;51.362;-2.384;2022-07-29T22:17:21;5.10;;;1.80;;
65047;SDS011;52089;51.362;-2.384;2022-07-29T22:21:04;2.57;;;1.60;;
65047;SDS011;52089;51.362;-2.384;2022-07-29T22:24:46;4.60;;;1.60;;
65047;SDS011;52089;51.362;-2.384;2022-07-29T22:28:28;3.03;;;1.40;;
65047;SDS011;52089;51.362;-2.384;2022-07-29T22:32:10;5.03;;;1.70;;
65047;SDS011;52089;51.362;-2.384;2022-07-29T22:35:51;4.27;;;1.60;;
65047;SDS011;52089;51.362;-2.384;2022-07-29T22:39:33;3.90;;;1.70;;
65047;SDS011;52089;51.362;-2.384;2022-07-29T22:43:15;6.47;;;2.30;;
65047;SDS011;52089;51.362;-2.384;2022-07-29T22:46:57;4.60;;;1.70;;